sensor_id;sensor_type;location;lat;lon;timestamp;temperature;humidity
23207;DHT22;11773;52.570;13.052;2023-05-10T00:00:09;14.70;99.90
23207;DHT22;11773;52.570;13.052;2023-05-10T00:02:40;14.70;99.90
23207;DHT22;11773;52.570;13.052;2023-05-10T00:05:09;14.70;99.90
23207;DHT22;11773;52.570;13.052;2023-05-10T00:07:39;14.80;99.90
23207;DHT22;11773;52.570;13.052;2023-05-10T00:10:10;14.80;99.90
23207;DHT22;11773;52.570;13.052;2023-05-10T00:12:41;14.70;99.90
23207;DHT22;11773;52.570;13.052;2023-05-10T00:15:10;14.80;99.90
23207;DHT22;11773;52.570;13.052;2023-05-10T00:17:40;14.80;99.90
23207;DHT22;11773;52.570;13.052;2023-05-10T00:20:10;14.60;99.90
23207;DHT22;11773;52.570;13.052;2023-05-10T00:22:40;14.60;99.90
23207;DHT22;11773;52.570;13.052;2023-05-10T00:25:10;14.60;99.90
23207;DHT22;11773;52.570;13.052;2023-05-10T00:27:40;14.60;99.90
23207;DHT22;11773;52.570;13.052;2023-05-10T00:30:09;14.70;99.90
23207;DHT22;11773;52.570;13.052;2023-05-10T00:32:39;14.70;99.90
23207;DHT22;11773;52.570;13.052;2023-05-10T00:35:08;14.60;99.90
23207;DHT22;11773;52.570;13.052;2023-05-10T00:37:38;14.60;99.90
23207;DHT22;11773;52.570;13.052;2023-05-10T00:40:08;14.50;99.90
23207;DHT22;11773;52.570;13.052;2023-05-10T00:42:38;14.60;99.90
23207;DHT22;11773;52.570;13.052;2023-05-10T00:45:08;14.50;99.90
23207;DHT22;11773;52.570;13.052;2023-05-10T00:47:39;14.50;99.90
23207;DHT22;11773;52.570;13.052;2023-05-10T00:50:09;14.40;99.90
23207;DHT22;11773;52.570;13.052;2023-05-10T00:52:39;14.50;99.90
23207;DHT22;11773;52.570;13.052;2023-05-10T00:55:10;14.50;99.90
23207;DHT22;11773;52.570;13.052;2023-05-10T00:57:40;14.60;99.90
23207;DHT22;11773;52.570;13.052;2023-05-10T01:00:11;14.40;99.90
23207;DHT22;11773;52.570;13.052;2023-05-10T01:02:49;14.40;99.90
23207;DHT22;11773;52.570;13.052;2023-05-10T01:05:15;14.30;99.90
23207;DHT22;11773;52.570;13.052;2023-05-10T01:07:45;14.40;99.90
23207;DHT22;11773;52.570;13.052;2023-05-10T01:10:15;14.40;99.90
23207;DHT22;11773;52.570;13.052;2023-05-10T01:12:47;14.30;99.90
23207;DHT22;11773;52.570;13.052;2023-05-10T01:15:16;14.40;99.90
23207;DHT22;11773;52.570;13.052;2023-05-10T01:17:49;14.40;99.90
23207;DHT22;11773;52.570;13.052;2023-05-10T01:20:19;14.30;99.90
23207;DHT22;11773;52.570;13.052;2023-05-10T01:23:07;14.40;99.90
23207;DHT22;11773;52.570;13.052;2023-05-10T01:25:47;14.40;99.90
23207;DHT22;11773;52.570;13.052;2023-05-10T01:34:31;14.30;99.90
23207;DHT22;11773;52.570;13.052;2023-05-10T01:37:15;14.30;99.90
23207;DHT22;11773;52.570;13.052;2023-05-10T01:42:35;14.20;99.90
23207;DHT22;11773;52.570;13.052;2023-05-10T01:45:28;14.20;99.90
23207;DHT22;11773;52.570;13.052;2023-05-10T01:48:03;14.10;99.90
23207;DHT22;11773;52.570;13.052;2023-05-10T01:50:43;14.00;99.90
23207;DHT22;11773;52.570;13.052;2023-05-10T01:53:17;14.00;99.90
23207;DHT22;11773;52.570;13.052;2023-05-10T01:55:52;14.00;99.90
23207;DHT22;11773;52.570;13.052;2023-05-10T01:58:27;14.00;99.90
23207;DHT22;11773;52.570;13.052;2023-05-10T02:01:00;14.00;99.90
23207;DHT22;11773;52.570;13.052;2023-05-10T02:03:32;14.00;99.90
23207;DHT22;11773;52.570;13.052;2023-05-10T02:06:05;13.90;99.90
23207;DHT22;11773;52.570;13.052;2023-05-10T02:08:38;13.80;99.90
23207;DHT22;11773;52.570;13.052;2023-05-10T02:11:11;13.90;99.90
23207;DHT22;11773;52.570;13.052;2023-05-10T02:13:43;13.90;99.90
23207;DHT22;11773;52.570;13.052;2023-05-10T02:16:16;13.80;99.90
23207;DHT22;11773;52.570;13.052;2023-05-10T02:18:48;13.80;99.90
23207;DHT22;11773;52.570;13.052;2023-05-10T02:21:20;13.70;99.90
23207;DHT22;11773;52.570;13.052;2023-05-10T02:23:52;13.70;99.90
23207;DHT22;11773;52.570;13.052;2023-05-10T02:26:24;13.60;99.90
23207;DHT22;11773;52.570;13.052;2023-05-10T02:28:54;13.70;99.90
23207;DHT22;11773;52.570;13.052;2023-05-10T02:31:27;13.60;99.90
23207;DHT22;11773;52.570;13.052;2023-05-10T02:33:58;13.60;99.90
23207;DHT22;11773;52.570;13.052;2023-05-10T02:36:30;13.50;99.90
23207;DHT22;11773;52.570;13.052;2023-05-10T02:39:01;13.60;99.90
23207;DHT22;11773;52.570;13.052;2023-05-10T02:41:32;13.50;99.90
23207;DHT22;11773;52.570;13.052;2023-05-10T02:44:03;13.50;99.90
23207;DHT22;11773;52.570;13.052;2023-05-10T02:46:35;13.40;99.90
23207;DHT22;11773;52.570;13.052;2023-05-10T02:49:05;13.40;99.90
23207;DHT22;11773;52.570;13.052;2023-05-10T02:51:37;13.40;99.90
23207;DHT22;11773;52.570;13.052;2023-05-10T02:54:18;13.40;99.90
23207;DHT22;11773;52.570;13.052;2023-05-10T02:56:58;13.20;99.90
23207;DHT22;11773;52.570;13.052;2023-05-10T02:59:26;13.40;99.90
23207;DHT22;11773;52.570;13.052;2023-05-10T03:01:56;13.40;99.90
23207;DHT22;11773;52.570;13.052;2023-05-10T03:04:25;13.30;99.90
23207;DHT22;11773;52.570;13.052;2023-05-10T03:06:55;13.10;99.90
23207;DHT22;11773;52.570;13.052;2023-05-10T03:09:24;13.20;99.90
23207;DHT22;11773;52.570;13.052;2023-05-10T03:15:00;13.20;99.90
23207;DHT22;11773;52.570;13.052;2023-05-10T03:17:57;13.20;99.90
23207;DHT22;11773;52.570;13.052;2023-05-10T03:20:36;13.30;99.90
23207;DHT22;11773;52.570;13.052;2023-05-10T03:23:22;13.20;99.90
23207;DHT22;11773;52.570;13.052;2023-05-10T03:25:56;13.10;99.90
23207;DHT22;11773;52.570;13.052;2023-05-10T03:28:28;13.10;99.90
23207;DHT22;11773;52.570;13.052;2023-05-10T03:30:59;13.00;99.90
23207;DHT22;11773;52.570;13.052;2023-05-10T03:33:29;12.90;99.90
23207;DHT22;11773;52.570;13.052;2023-05-10T03:35:59;13.00;99.90
23207;DHT22;11773;52.570;13.052;2023-05-10T03:38:28;13.00;99.90
23207;DHT22;11773;52.570;13.052;2023-05-10T03:40:58;13.10;99.90
23207;DHT22;11773;52.570;13.052;2023-05-10T03:43:27;13.00;99.90
23207;DHT22;11773;52.570;13.052;2023-05-10T03:45:57;13.00;99.90
23207;DHT22;11773;52.570;13.052;2023-05-10T03:48:27;13.00;99.90
23207;DHT22;11773;52.570;13.052;2023-05-10T03:50:56;13.00;99.90
23207;DHT22;11773;52.570;13.052;2023-05-10T03:53:26;13.00;99.90
23207;DHT22;11773;52.570;13.052;2023-05-10T03:55:55;13.00;99.90
23207;DHT22;11773;52.570;13.052;2023-05-10T03:58:25;12.90;99.90
23207;DHT22;11773;52.570;13.052;2023-05-10T04:00:54;12.90;99.90
23207;DHT22;11773;52.570;13.052;2023-05-10T04:03:24;12.80;99.90
23207;DHT22;11773;52.570;13.052;2023-05-10T04:06:03;12.90;99.90
23207;DHT22;11773;52.570;13.052;2023-05-10T04:08:33;12.80;99.90
23207;DHT22;11773;52.570;13.052;2023-05-10T04:11:11;12.80;99.90
23207;DHT22;11773;52.570;13.052;2023-05-10T04:13:41;12.80;99.90
23207;DHT22;11773;52.570;13.052;2023-05-10T04:16:11;12.80;99.90
23207;DHT22;11773;52.570;13.052;2023-05-10T04:18:40;12.80;99.90
23207;DHT22;11773;52.570;13.052;2023-05-10T04:21:13;12.90;99.90
23207;DHT22;11773;52.570;13.052;2023-05-10T04:23:43;12.80;99.90
23207;DHT22;11773;52.570;13.052;2023-05-10T04:26:13;12.80;99.90
23207;DHT22;11773;52.570;13.052;2023-05-10T04:28:42;12.90;99.90
23207;DHT22;11773;52.570;13.052;2023-05-10T04:31:12;12.80;99.90
23207;DHT22;11773;52.570;13.052;2023-05-10T04:33:42;12.90;99.90
23207;DHT22;11773;52.570;13.052;2023-05-10T04:36:11;12.90;99.90
23207;DHT22;11773;52.570;13.052;2023-05-10T04:38:41;13.00;99.90
23207;DHT22;11773;52.570;13.052;2023-05-10T04:41:11;12.90;99.90
23207;DHT22;11773;52.570;13.052;2023-05-10T04:43:41;13.00;99.90
23207;DHT22;11773;52.570;13.052;2023-05-10T04:46:10;13.10;99.90
23207;DHT22;11773;52.570;13.052;2023-05-10T04:48:40;13.10;99.90
23207;DHT22;11773;52.570;13.052;2023-05-10T04:51:10;13.10;99.90
23207;DHT22;11773;52.570;13.052;2023-05-10T04:53:40;13.20;99.90
23207;DHT22;11773;52.570;13.052;2023-05-10T04:56:11;13.20;99.90
23207;DHT22;11773;52.570;13.052;2023-05-10T04:58:41;13.30;99.90
23207;DHT22;11773;52.570;13.052;2023-05-10T05:01:10;13.20;99.90
23207;DHT22;11773;52.570;13.052;2023-05-10T05:03:40;13.30;99.90
23207;DHT22;11773;52.570;13.052;2023-05-10T05:06:10;13.40;99.90
23207;DHT22;11773;52.570;13.052;2023-05-10T05:08:39;13.40;99.90
23207;DHT22;11773;52.570;13.052;2023-05-10T05:11:09;13.30;99.90
23207;DHT22;11773;52.570;13.052;2023-05-10T05:13:38;13.30;99.90
23207;DHT22;11773;52.570;13.052;2023-05-10T05:16:08;13.40;99.90
23207;DHT22;11773;52.570;13.052;2023-05-10T05:18:39;13.70;99.90
23207;DHT22;11773;52.570;13.052;2023-05-10T05:21:18;14.30;99.90
23207;DHT22;11773;52.570;13.052;2023-05-10T05:23:49;14.90;99.90
23207;DHT22;11773;52.570;13.052;2023-05-10T05:26:18;15.30;99.90
23207;DHT22;11773;52.570;13.052;2023-05-10T05:28:48;15.70;99.90
23207;DHT22;11773;52.570;13.052;2023-05-10T05:31:20;16.00;99.90
23207;DHT22;11773;52.570;13.052;2023-05-10T05:33:49;16.20;99.90
23207;DHT22;11773;52.570;13.052;2023-05-10T05:36:19;16.60;99.90
23207;DHT22;11773;52.570;13.052;2023-05-10T05:38:48;16.90;99.90
23207;DHT22;11773;52.570;13.052;2023-05-10T05:41:18;17.10;99.90
23207;DHT22;11773;52.570;13.052;2023-05-10T05:43:49;17.20;99.90
23207;DHT22;11773;52.570;13.052;2023-05-10T05:46:18;17.40;99.90
23207;DHT22;11773;52.570;13.052;2023-05-10T05:48:48;17.30;99.90
23207;DHT22;11773;52.570;13.052;2023-05-10T05:51:17;17.40;99.90
23207;DHT22;11773;52.570;13.052;2023-05-10T05:53:47;17.80;99.90
23207;DHT22;11773;52.570;13.052;2023-05-10T05:56:17;18.00;99.90
23207;DHT22;11773;52.570;13.052;2023-05-10T05:58:48;18.10;99.90
23207;DHT22;11773;52.570;13.052;2023-05-10T06:01:18;17.90;99.90
23207;DHT22;11773;52.570;13.052;2023-05-10T06:03:47;18.10;99.90
23207;DHT22;11773;52.570;13.052;2023-05-10T06:06:19;18.30;99.90
23207;DHT22;11773;52.570;13.052;2023-05-10T06:08:48;18.10;99.90
23207;DHT22;11773;52.570;13.052;2023-05-10T06:11:18;18.10;99.90
23207;DHT22;11773;52.570;13.052;2023-05-10T06:13:48;18.10;99.90
23207;DHT22;11773;52.570;13.052;2023-05-10T06:16:18;18.10;99.90
23207;DHT22;11773;52.570;13.052;2023-05-10T06:18:48;18.40;99.90
23207;DHT22;11773;52.570;13.052;2023-05-10T06:21:17;18.50;99.90
23207;DHT22;11773;52.570;13.052;2023-05-10T06:23:47;18.80;99.90
23207;DHT22;11773;52.570;13.052;2023-05-10T06:26:17;18.80;99.90
23207;DHT22;11773;52.570;13.052;2023-05-10T06:28:48;19.00;99.90
23207;DHT22;11773;52.570;13.052;2023-05-10T06:31:17;18.70;99.90
23207;DHT22;11773;52.570;13.052;2023-05-10T06:33:47;18.60;99.90
23207;DHT22;11773;52.570;13.052;2023-05-10T06:36:17;18.80;99.90
23207;DHT22;11773;52.570;13.052;2023-05-10T06:38:46;19.10;99.90
23207;DHT22;11773;52.570;13.052;2023-05-10T06:41:16;18.70;99.90
23207;DHT22;11773;52.570;13.052;2023-05-10T06:43:45;19.00;99.90
23207;DHT22;11773;52.570;13.052;2023-05-10T06:46:15;19.10;99.90
23207;DHT22;11773;52.570;13.052;2023-05-10T06:48:44;19.10;99.90
23207;DHT22;11773;52.570;13.052;2023-05-10T06:51:14;18.90;99.90
23207;DHT22;11773;52.570;13.052;2023-05-10T06:53:44;19.30;99.90
23207;DHT22;11773;52.570;13.052;2023-05-10T06:56:13;19.40;99.90
23207;DHT22;11773;52.570;13.052;2023-05-10T06:58:43;19.20;99.90
23207;DHT22;11773;52.570;13.052;2023-05-10T07:01:13;19.10;99.90
23207;DHT22;11773;52.570;13.052;2023-05-10T07:03:43;19.50;99.90
23207;DHT22;11773;52.570;13.052;2023-05-10T07:06:12;19.30;99.90
23207;DHT22;11773;52.570;13.052;2023-05-10T07:08:43;19.40;99.90
23207;DHT22;11773;52.570;13.052;2023-05-10T07:11:13;19.50;99.90
23207;DHT22;11773;52.570;13.052;2023-05-10T07:13:43;19.50;99.90
23207;DHT22;11773;52.570;13.052;2023-05-10T07:16:14;19.30;99.90
23207;DHT22;11773;52.570;13.052;2023-05-10T07:18:43;19.50;99.90
23207;DHT22;11773;52.570;13.052;2023-05-10T07:21:13;19.50;99.90
23207;DHT22;11773;52.570;13.052;2023-05-10T07:23:42;19.80;99.90
23207;DHT22;11773;52.570;13.052;2023-05-10T07:26:12;19.90;99.90
23207;DHT22;11773;52.570;13.052;2023-05-10T07:28:42;19.90;99.90
23207;DHT22;11773;52.570;13.052;2023-05-10T07:31:12;20.00;99.90
23207;DHT22;11773;52.570;13.052;2023-05-10T07:33:41;20.10;99.90
23207;DHT22;11773;52.570;13.052;2023-05-10T07:36:11;20.10;99.90
23207;DHT22;11773;52.570;13.052;2023-05-10T07:38:40;20.10;99.90
23207;DHT22;11773;52.570;13.052;2023-05-10T07:41:11;20.30;99.90
23207;DHT22;11773;52.570;13.052;2023-05-10T07:43:41;20.20;99.90
23207;DHT22;11773;52.570;13.052;2023-05-10T07:46:11;20.00;99.90
23207;DHT22;11773;52.570;13.052;2023-05-10T07:48:41;20.10;99.90
23207;DHT22;11773;52.570;13.052;2023-05-10T07:51:10;20.20;99.90
23207;DHT22;11773;52.570;13.052;2023-05-10T07:53:40;20.40;99.90
23207;DHT22;11773;52.570;13.052;2023-05-10T07:56:30;20.60;99.90
23207;DHT22;11773;52.570;13.052;2023-05-10T07:59:01;20.50;99.90
23207;DHT22;11773;52.570;13.052;2023-05-10T08:01:34;20.60;99.90
23207;DHT22;11773;52.570;13.052;2023-05-10T08:04:03;20.30;99.90
23207;DHT22;11773;52.570;13.052;2023-05-10T08:06:33;20.40;99.90
23207;DHT22;11773;52.570;13.052;2023-05-10T08:09:03;20.50;99.90
23207;DHT22;11773;52.570;13.052;2023-05-10T08:11:32;20.50;99.90
23207;DHT22;11773;52.570;13.052;2023-05-10T08:14:02;20.60;99.90
23207;DHT22;11773;52.570;13.052;2023-05-10T08:16:32;20.50;99.90
23207;DHT22;11773;52.570;13.052;2023-05-10T08:19:02;20.90;99.90
23207;DHT22;11773;52.570;13.052;2023-05-10T08:21:32;20.90;99.90
23207;DHT22;11773;52.570;13.052;2023-05-10T08:24:02;20.90;99.90
23207;DHT22;11773;52.570;13.052;2023-05-10T08:26:33;20.90;99.90
23207;DHT22;11773;52.570;13.052;2023-05-10T08:29:02;20.90;99.90
23207;DHT22;11773;52.570;13.052;2023-05-10T08:31:32;21.10;99.90
23207;DHT22;11773;52.570;13.052;2023-05-10T08:34:01;21.30;99.90
23207;DHT22;11773;52.570;13.052;2023-05-10T08:36:31;21.00;99.90
23207;DHT22;11773;52.570;13.052;2023-05-10T08:39:00;21.00;99.90
23207;DHT22;11773;52.570;13.052;2023-05-10T08:41:32;21.20;99.90
23207;DHT22;11773;52.570;13.052;2023-05-10T08:44:04;21.20;99.90
23207;DHT22;11773;52.570;13.052;2023-05-10T08:46:37;21.40;99.90
23207;DHT22;11773;52.570;13.052;2023-05-10T08:49:12;21.50;99.90
23207;DHT22;11773;52.570;13.052;2023-05-10T08:51:47;21.60;99.90
23207;DHT22;11773;52.570;13.052;2023-05-10T08:54:18;21.50;99.90
23207;DHT22;11773;52.570;13.052;2023-05-10T08:56:49;21.50;99.90
23207;DHT22;11773;52.570;13.052;2023-05-10T08:59:19;21.60;99.90
23207;DHT22;11773;52.570;13.052;2023-05-10T09:01:49;21.70;99.90
23207;DHT22;11773;52.570;13.052;2023-05-10T09:04:21;21.70;99.90
23207;DHT22;11773;52.570;13.052;2023-05-10T09:06:51;21.60;99.90
23207;DHT22;11773;52.570;13.052;2023-05-10T09:09:21;21.40;99.90
23207;DHT22;11773;52.570;13.052;2023-05-10T09:11:53;21.40;99.90
23207;DHT22;11773;52.570;13.052;2023-05-10T09:14:24;21.30;99.90
23207;DHT22;11773;52.570;13.052;2023-05-10T09:16:54;21.70;99.90
23207;DHT22;11773;52.570;13.052;2023-05-10T09:19:24;21.90;99.90
23207;DHT22;11773;52.570;13.052;2023-05-10T09:21:54;22.00;99.90
23207;DHT22;11773;52.570;13.052;2023-05-10T09:24:26;21.90;99.90
23207;DHT22;11773;52.570;13.052;2023-05-10T09:26:58;21.70;99.90
23207;DHT22;11773;52.570;13.052;2023-05-10T09:29:42;21.60;99.90
23207;DHT22;11773;52.570;13.052;2023-05-10T09:32:12;21.80;99.90
23207;DHT22;11773;52.570;13.052;2023-05-10T09:34:43;21.50;99.90
23207;DHT22;11773;52.570;13.052;2023-05-10T09:37:13;22.00;99.90
23207;DHT22;11773;52.570;13.052;2023-05-10T09:39:42;22.10;99.90
23207;DHT22;11773;52.570;13.052;2023-05-10T09:42:12;22.20;99.90
23207;DHT22;11773;52.570;13.052;2023-05-10T09:44:43;22.00;99.90
23207;DHT22;11773;52.570;13.052;2023-05-10T09:47:18;22.20;99.90
23207;DHT22;11773;52.570;13.052;2023-05-10T09:49:51;22.40;99.90
23207;DHT22;11773;52.570;13.052;2023-05-10T09:52:23;22.70;99.90
23207;DHT22;11773;52.570;13.052;2023-05-10T09:54:53;22.60;99.70
23207;DHT22;11773;52.570;13.052;2023-05-10T09:57:24;22.60;99.90
23207;DHT22;11773;52.570;13.052;2023-05-10T09:59:54;22.60;99.90
23207;DHT22;11773;52.570;13.052;2023-05-10T10:02:32;22.70;99.90
23207;DHT22;11773;52.570;13.052;2023-05-10T10:04:58;22.70;99.90
23207;DHT22;11773;52.570;13.052;2023-05-10T10:07:30;22.40;99.50
23207;DHT22;11773;52.570;13.052;2023-05-10T10:10:01;22.50;99.90
23207;DHT22;11773;52.570;13.052;2023-05-10T10:12:32;22.70;99.90
23207;DHT22;11773;52.570;13.052;2023-05-10T10:15:04;22.70;99.90
23207;DHT22;11773;52.570;13.052;2023-05-10T10:17:36;22.70;99.90
23207;DHT22;11773;52.570;13.052;2023-05-10T10:20:09;22.60;99.90
23207;DHT22;11773;52.570;13.052;2023-05-10T10:22:39;22.60;99.70
23207;DHT22;11773;52.570;13.052;2023-05-10T10:25:10;22.70;99.50
23207;DHT22;11773;52.570;13.052;2023-05-10T10:30:49;22.90;99.90
23207;DHT22;11773;52.570;13.052;2023-05-10T10:36:09;22.90;99.90
23207;DHT22;11773;52.570;13.052;2023-05-10T10:41:39;23.00;99.90
23207;DHT22;11773;52.570;13.052;2023-05-10T10:50:03;23.10;99.70
23207;DHT22;11773;52.570;13.052;2023-05-10T10:52:41;23.10;99.90
23207;DHT22;11773;52.570;13.052;2023-05-10T10:55:21;22.90;99.70
23207;DHT22;11773;52.570;13.052;2023-05-10T10:57:53;23.10;99.60
23207;DHT22;11773;52.570;13.052;2023-05-10T11:00:33;23.40;99.90
23207;DHT22;11773;52.570;13.052;2023-05-10T11:03:09;23.30;99.90
23207;DHT22;11773;52.570;13.052;2023-05-10T11:05:46;23.60;99.50
23207;DHT22;11773;52.570;13.052;2023-05-10T11:08:41;23.40;99.40
23207;DHT22;11773;52.570;13.052;2023-05-10T11:13:45;23.50;99.60
23207;DHT22;11773;52.570;13.052;2023-05-10T11:16:20;23.50;99.70
23207;DHT22;11773;52.570;13.052;2023-05-10T11:19:02;23.60;99.50
23207;DHT22;11773;52.570;13.052;2023-05-10T11:21:44;23.70;99.90
23207;DHT22;11773;52.570;13.052;2023-05-10T11:24:25;23.90;98.70
23207;DHT22;11773;52.570;13.052;2023-05-10T11:26:56;23.80;98.20
23207;DHT22;11773;52.570;13.052;2023-05-10T11:29:26;23.80;99.40
23207;DHT22;11773;52.570;13.052;2023-05-10T11:31:58;24.00;99.20
23207;DHT22;11773;52.570;13.052;2023-05-10T11:34:29;23.90;99.60
23207;DHT22;11773;52.570;13.052;2023-05-10T11:37:01;23.70;98.70
23207;DHT22;11773;52.570;13.052;2023-05-10T11:39:31;23.80;99.70
23207;DHT22;11773;52.570;13.052;2023-05-10T11:42:01;24.10;98.90
23207;DHT22;11773;52.570;13.052;2023-05-10T11:44:32;24.00;97.90
23207;DHT22;11773;52.570;13.052;2023-05-10T11:47:02;23.90;98.30
23207;DHT22;11773;52.570;13.052;2023-05-10T11:49:32;23.80;97.90
23207;DHT22;11773;52.570;13.052;2023-05-10T11:52:05;23.60;98.20
23207;DHT22;11773;52.570;13.052;2023-05-10T11:54:35;23.70;98.00
23207;DHT22;11773;52.570;13.052;2023-05-10T11:57:05;23.70;98.30
23207;DHT22;11773;52.570;13.052;2023-05-10T11:59:34;23.60;98.50
23207;DHT22;11773;52.570;13.052;2023-05-10T12:02:04;23.70;98.40
23207;DHT22;11773;52.570;13.052;2023-05-10T12:04:34;23.80;99.10
23207;DHT22;11773;52.570;13.052;2023-05-10T12:07:04;24.20;98.90
23207;DHT22;11773;52.570;13.052;2023-05-10T12:09:33;24.30;98.10
23207;DHT22;11773;52.570;13.052;2023-05-10T12:12:05;24.30;98.40
23207;DHT22;11773;52.570;13.052;2023-05-10T12:14:36;24.30;98.40
23207;DHT22;11773;52.570;13.052;2023-05-10T12:17:05;24.50;98.50
23207;DHT22;11773;52.570;13.052;2023-05-10T12:19:40;24.50;98.60
23207;DHT22;11773;52.570;13.052;2023-05-10T12:22:11;24.60;97.80
23207;DHT22;11773;52.570;13.052;2023-05-10T12:24:40;24.40;97.60
23207;DHT22;11773;52.570;13.052;2023-05-10T12:27:10;24.60;97.70
23207;DHT22;11773;52.570;13.052;2023-05-10T12:29:41;24.40;97.50
23207;DHT22;11773;52.570;13.052;2023-05-10T12:32:12;24.70;98.00
23207;DHT22;11773;52.570;13.052;2023-05-10T12:34:41;24.50;97.80
23207;DHT22;11773;52.570;13.052;2023-05-10T12:37:11;24.60;97.20
23207;DHT22;11773;52.570;13.052;2023-05-10T12:39:43;24.50;97.10
23207;DHT22;11773;52.570;13.052;2023-05-10T12:42:13;24.60;97.60
23207;DHT22;11773;52.570;13.052;2023-05-10T12:44:43;24.70;97.00
23207;DHT22;11773;52.570;13.052;2023-05-10T12:47:12;24.80;97.20
23207;DHT22;11773;52.570;13.052;2023-05-10T12:49:42;24.80;96.70
23207;DHT22;11773;52.570;13.052;2023-05-10T12:52:11;24.60;95.50
23207;DHT22;11773;52.570;13.052;2023-05-10T12:54:41;24.70;96.00
23207;DHT22;11773;52.570;13.052;2023-05-10T12:57:10;24.50;95.70
23207;DHT22;11773;52.570;13.052;2023-05-10T12:59:41;24.60;96.30
23207;DHT22;11773;52.570;13.052;2023-05-10T13:02:10;24.60;96.40
23207;DHT22;11773;52.570;13.052;2023-05-10T13:04:41;24.80;96.90
23207;DHT22;11773;52.570;13.052;2023-05-10T13:07:10;24.90;96.00
23207;DHT22;11773;52.570;13.052;2023-05-10T13:09:40;24.40;96.70
23207;DHT22;11773;52.570;13.052;2023-05-10T13:12:09;24.60;95.40
23207;DHT22;11773;52.570;13.052;2023-05-10T13:14:39;24.60;95.20
23207;DHT22;11773;52.570;13.052;2023-05-10T13:17:08;24.70;95.80
23207;DHT22;11773;52.570;13.052;2023-05-10T13:19:38;24.60;95.40
23207;DHT22;11773;52.570;13.052;2023-05-10T13:22:08;24.70;96.30
23207;DHT22;11773;52.570;13.052;2023-05-10T13:24:37;24.90;96.20
23207;DHT22;11773;52.570;13.052;2023-05-10T13:27:07;24.80;95.90
23207;DHT22;11773;52.570;13.052;2023-05-10T13:29:37;24.80;96.40
23207;DHT22;11773;52.570;13.052;2023-05-10T13:32:06;24.70;96.10
23207;DHT22;11773;52.570;13.052;2023-05-10T13:34:36;24.50;94.40
23207;DHT22;11773;52.570;13.052;2023-05-10T13:37:05;24.60;96.60
23207;DHT22;11773;52.570;13.052;2023-05-10T13:39:35;24.60;95.20
23207;DHT22;11773;52.570;13.052;2023-05-10T13:42:05;24.50;95.80
23207;DHT22;11773;52.570;13.052;2023-05-10T13:44:34;24.50;95.70
23207;DHT22;11773;52.570;13.052;2023-05-10T13:47:06;24.60;96.20
23207;DHT22;11773;52.570;13.052;2023-05-10T13:49:36;24.70;96.00
23207;DHT22;11773;52.570;13.052;2023-05-10T13:52:06;24.70;96.10
23207;DHT22;11773;52.570;13.052;2023-05-10T13:54:36;24.70;94.80
23207;DHT22;11773;52.570;13.052;2023-05-10T13:57:06;24.60;96.20
23207;DHT22;11773;52.570;13.052;2023-05-10T13:59:36;24.40;95.40
23207;DHT22;11773;52.570;13.052;2023-05-10T14:02:06;24.40;96.40
23207;DHT22;11773;52.570;13.052;2023-05-10T14:04:36;24.50;96.20
23207;DHT22;11773;52.570;13.052;2023-05-10T14:07:05;24.60;95.10
23207;DHT22;11773;52.570;13.052;2023-05-10T14:09:35;24.50;96.00
23207;DHT22;11773;52.570;13.052;2023-05-10T14:12:05;24.30;95.70
23207;DHT22;11773;52.570;13.052;2023-05-10T14:14:34;24.30;96.10
23207;DHT22;11773;52.570;13.052;2023-05-10T14:17:04;24.50;95.90
23207;DHT22;11773;52.570;13.052;2023-05-10T14:19:33;24.30;95.60
23207;DHT22;11773;52.570;13.052;2023-05-10T14:22:03;24.20;96.30
23207;DHT22;11773;52.570;13.052;2023-05-10T14:24:32;24.20;96.00
23207;DHT22;11773;52.570;13.052;2023-05-10T14:27:02;24.30;95.80
23207;DHT22;11773;52.570;13.052;2023-05-10T14:29:31;24.50;97.40
23207;DHT22;11773;52.570;13.052;2023-05-10T14:32:01;24.30;96.00
23207;DHT22;11773;52.570;13.052;2023-05-10T14:34:30;24.30;96.60
23207;DHT22;11773;52.570;13.052;2023-05-10T14:37:00;24.10;96.20
23207;DHT22;11773;52.570;13.052;2023-05-10T14:39:29;24.10;95.90
23207;DHT22;11773;52.570;13.052;2023-05-10T14:41:59;24.30;96.00
23207;DHT22;11773;52.570;13.052;2023-05-10T14:44:30;24.40;95.80
23207;DHT22;11773;52.570;13.052;2023-05-10T14:46:59;24.30;96.30
23207;DHT22;11773;52.570;13.052;2023-05-10T14:49:29;24.20;96.00
23207;DHT22;11773;52.570;13.052;2023-05-10T14:51:59;24.20;96.60
23207;DHT22;11773;52.570;13.052;2023-05-10T14:54:28;24.30;96.50
23207;DHT22;11773;52.570;13.052;2023-05-10T14:56:58;24.40;96.50
23207;DHT22;11773;52.570;13.052;2023-05-10T14:59:28;24.30;96.00
23207;DHT22;11773;52.570;13.052;2023-05-10T15:01:58;24.20;96.50
23207;DHT22;11773;52.570;13.052;2023-05-10T15:04:28;24.20;96.30
23207;DHT22;11773;52.570;13.052;2023-05-10T15:06:58;24.30;96.80
23207;DHT22;11773;52.570;13.052;2023-05-10T15:09:28;24.20;96.20
23207;DHT22;11773;52.570;13.052;2023-05-10T15:11:58;24.30;96.60
23207;DHT22;11773;52.570;13.052;2023-05-10T15:14:28;24.40;96.30
23207;DHT22;11773;52.570;13.052;2023-05-10T15:16:58;24.30;96.40
23207;DHT22;11773;52.570;13.052;2023-05-10T15:19:27;24.30;96.30
23207;DHT22;11773;52.570;13.052;2023-05-10T15:21:57;24.20;98.20
23207;DHT22;11773;52.570;13.052;2023-05-10T15:24:27;24.00;99.90
23207;DHT22;11773;52.570;13.052;2023-05-10T15:26:56;24.10;99.90
23207;DHT22;11773;52.570;13.052;2023-05-10T15:29:26;23.90;99.90
23207;DHT22;11773;52.570;13.052;2023-05-10T15:31:57;24.10;99.90
23207;DHT22;11773;52.570;13.052;2023-05-10T15:34:26;23.80;99.90
23207;DHT22;11773;52.570;13.052;2023-05-10T15:36:57;23.80;99.90
23207;DHT22;11773;52.570;13.052;2023-05-10T15:39:26;23.70;99.90
23207;DHT22;11773;52.570;13.052;2023-05-10T15:41:56;23.70;99.90
23207;DHT22;11773;52.570;13.052;2023-05-10T15:44:26;23.60;99.90
23207;DHT22;11773;52.570;13.052;2023-05-10T15:46:55;23.70;99.90
23207;DHT22;11773;52.570;13.052;2023-05-10T15:49:25;23.80;99.90
23207;DHT22;11773;52.570;13.052;2023-05-10T15:51:54;23.70;99.90
23207;DHT22;11773;52.570;13.052;2023-05-10T15:54:24;23.70;99.90
23207;DHT22;11773;52.570;13.052;2023-05-10T15:56:53;23.60;99.90
23207;DHT22;11773;52.570;13.052;2023-05-10T15:59:23;23.30;99.90
23207;DHT22;11773;52.570;13.052;2023-05-10T16:01:52;23.20;99.90
23207;DHT22;11773;52.570;13.052;2023-05-10T16:04:22;23.30;99.90
23207;DHT22;11773;52.570;13.052;2023-05-10T16:06:52;23.20;99.90